sensor_id;sensor_type;location;lat;lon;timestamp;P1;durP1;ratioP1;P2;durP2;ratioP2
10090;SDS011;5084;51.386;6.778;2023-07-29T00:00:45;1.93;;;1.83;;
10090;SDS011;5084;51.386;6.778;2023-07-29T00:03:12;2.00;;;1.90;;
10090;SDS011;5084;51.386;6.778;2023-07-29T00:05:38;2.37;;;2.17;;
10090;SDS011;5084;51.386;6.778;2023-07-29T00:08:04;2.30;;;2.07;;
10090;SDS011;5084;51.386;6.778;2023-07-29T00:10:35;2.23;;;2.00;;
10090;SDS011;5084;51.386;6.778;2023-07-29T00:13:02;2.00;;;1.80;;
10090;SDS011;5084;51.386;6.778;2023-07-29T00:15:28;2.20;;;2.00;;
10090;SDS011;5084;51.386;6.778;2023-07-29T00:17:54;2.00;;;1.80;;
10090;SDS011;5084;51.386;6.778;2023-07-29T00:20:21;2.67;;;2.47;;
10090;SDS011;5084;51.386;6.778;2023-07-29T00:22:47;2.57;;;2.03;;
10090;SDS011;5084;51.386;6.778;2023-07-29T00:25:15;1.73;;;1.63;;
10090;SDS011;5084;51.386;6.778;2023-07-29T00:27:41;2.27;;;2.07;;
10090;SDS011;5084;51.386;6.778;2023-07-29T00:30:08;2.03;;;1.93;;
10090;SDS011;5084;51.386;6.778;2023-07-29T00:32:34;3.13;;;2.20;;
10090;SDS011;5084;51.386;6.778;2023-07-29T00:35:01;2.30;;;2.20;;
10090;SDS011;5084;51.386;6.778;2023-07-29T00:37:27;2.10;;;2.00;;
10090;SDS011;5084;51.386;6.778;2023-07-29T00:39:53;2.40;;;1.80;;
10090;SDS011;5084;51.386;6.778;2023-07-29T00:42:19;2.27;;;2.03;;
10090;SDS011;5084;51.386;6.778;2023-07-29T00:44:45;2.07;;;1.97;;
10090;SDS011;5084;51.386;6.778;2023-07-29T00:47:11;2.03;;;1.83;;
10090;SDS011;5084;51.386;6.778;2023-07-29T00:49:38;2.30;;;2.10;;
10090;SDS011;5084;51.386;6.778;2023-07-29T00:52:04;2.23;;;2.03;;
10090;SDS011;5084;51.386;6.778;2023-07-29T00:54:30;2.50;;;2.30;;
10090;SDS011;5084;51.386;6.778;2023-07-29T00:56:56;1.93;;;1.80;;
10090;SDS011;5084;51.386;6.778;2023-07-29T00:59:23;2.30;;;2.20;;
10090;SDS011;5084;51.386;6.778;2023-07-29T01:01:49;2.20;;;2.10;;
10090;SDS011;5084;51.386;6.778;2023-07-29T01:04:15;2.10;;;2.00;;
10090;SDS011;5084;51.386;6.778;2023-07-29T01:06:50;2.30;;;2.10;;
10090;SDS011;5084;51.386;6.778;2023-07-29T01:14:38;2.43;;;2.23;;
10090;SDS011;5084;51.386;6.778;2023-07-29T01:17:07;2.30;;;2.20;;
10090;SDS011;5084;51.386;6.778;2023-07-29T01:22:10;1.73;;;1.63;;
10090;SDS011;5084;51.386;6.778;2023-07-29T01:24:37;2.23;;;2.13;;
10090;SDS011;5084;51.386;6.778;2023-07-29T01:27:03;2.10;;;2.00;;
10090;SDS011;5084;51.386;6.778;2023-07-29T01:29:30;2.40;;;2.20;;
10090;SDS011;5084;51.386;6.778;2023-07-29T01:31:56;2.00;;;1.90;;
10090;SDS011;5084;51.386;6.778;2023-07-29T01:34:29;2.10;;;2.00;;
10090;SDS011;5084;51.386;6.778;2023-07-29T01:36:58;2.20;;;2.10;;
10090;SDS011;5084;51.386;6.778;2023-07-29T01:39:27;1.90;;;1.80;;
10090;SDS011;5084;51.386;6.778;2023-07-29T01:41:54;2.17;;;1.97;;
10090;SDS011;5084;51.386;6.778;2023-07-29T01:44:20;2.73;;;2.23;;
10090;SDS011;5084;51.386;6.778;2023-07-29T01:46:46;1.90;;;1.80;;
10090;SDS011;5084;51.386;6.778;2023-07-29T01:49:13;3.20;;;2.40;;
10090;SDS011;5084;51.386;6.778;2023-07-29T01:51:39;4.23;;;2.13;;
10090;SDS011;5084;51.386;6.778;2023-07-29T01:54:05;2.17;;;2.07;;
10090;SDS011;5084;51.386;6.778;2023-07-29T01:56:31;1.97;;;1.87;;
10090;SDS011;5084;51.386;6.778;2023-07-29T01:58:57;2.40;;;2.00;;
10090;SDS011;5084;51.386;6.778;2023-07-29T02:01:23;2.83;;;1.90;;
10090;SDS011;5084;51.386;6.778;2023-07-29T02:03:49;2.13;;;2.03;;
10090;SDS011;5084;51.386;6.778;2023-07-29T02:06:19;2.20;;;2.10;;
10090;SDS011;5084;51.386;6.778;2023-07-29T02:08:46;2.43;;;2.13;;
10090;SDS011;5084;51.386;6.778;2023-07-29T02:11:12;2.20;;;2.10;;
10090;SDS011;5084;51.386;6.778;2023-07-29T02:13:38;2.57;;;2.37;;
10090;SDS011;5084;51.386;6.778;2023-07-29T02:16:04;4.40;;;2.10;;
10090;SDS011;5084;51.386;6.778;2023-07-29T02:18:30;1.97;;;1.87;;
10090;SDS011;5084;51.386;6.778;2023-07-29T02:20:56;3.23;;;1.90;;
10090;SDS011;5084;51.386;6.778;2023-07-29T02:23:22;2.23;;;2.13;;
10090;SDS011;5084;51.386;6.778;2023-07-29T02:25:48;2.13;;;2.03;;
10090;SDS011;5084;51.386;6.778;2023-07-29T02:28:14;1.90;;;1.80;;
10090;SDS011;5084;51.386;6.778;2023-07-29T02:30:40;2.00;;;1.90;;
10090;SDS011;5084;51.386;6.778;2023-07-29T02:33:06;2.57;;;2.37;;
10090;SDS011;5084;51.386;6.778;2023-07-29T02:35:32;1.93;;;1.83;;
10090;SDS011;5084;51.386;6.778;2023-07-29T02:37:58;2.53;;;2.33;;
10090;SDS011;5084;51.386;6.778;2023-07-29T02:40:24;2.30;;;2.20;;
10090;SDS011;5084;51.386;6.778;2023-07-29T02:42:51;2.27;;;2.07;;
10090;SDS011;5084;51.386;6.778;2023-07-29T02:45:18;2.17;;;1.97;;
10090;SDS011;5084;51.386;6.778;2023-07-29T02:47:44;2.10;;;1.90;;
10090;SDS011;5084;51.386;6.778;2023-07-29T02:50:10;2.23;;;2.10;;
10090;SDS011;5084;51.386;6.778;2023-07-29T02:52:36;3.60;;;2.40;;
10090;SDS011;5084;51.386;6.778;2023-07-29T02:55:02;2.03;;;1.93;;
10090;SDS011;5084;51.386;6.778;2023-07-29T02:57:28;2.77;;;2.20;;
10090;SDS011;5084;51.386;6.778;2023-07-29T02:59:54;2.17;;;2.07;;
10090;SDS011;5084;51.386;6.778;2023-07-29T03:02:20;2.30;;;2.00;;
10090;SDS011;5084;51.386;6.778;2023-07-29T03:04:47;2.53;;;2.07;;
10090;SDS011;5084;51.386;6.778;2023-07-29T03:07:13;2.90;;;2.50;;
10090;SDS011;5084;51.386;6.778;2023-07-29T03:09:39;2.60;;;2.40;;
10090;SDS011;5084;51.386;6.778;2023-07-29T03:12:07;2.30;;;2.17;;
10090;SDS011;5084;51.386;6.778;2023-07-29T03:14:33;3.00;;;2.00;;
10090;SDS011;5084;51.386;6.778;2023-07-29T03:17:02;3.60;;;3.40;;
10090;SDS011;5084;51.386;6.778;2023-07-29T03:19:29;2.40;;;2.20;;
10090;SDS011;5084;51.386;6.778;2023-07-29T03:21:55;1.90;;;1.80;;
10090;SDS011;5084;51.386;6.778;2023-07-29T03:24:21;2.00;;;1.90;;
10090;SDS011;5084;51.386;6.778;2023-07-29T03:26:47;2.40;;;2.20;;
10090;SDS011;5084;51.386;6.778;2023-07-29T03:29:13;2.20;;;2.00;;
10090;SDS011;5084;51.386;6.778;2023-07-29T03:31:39;3.60;;;3.40;;
10090;SDS011;5084;51.386;6.778;2023-07-29T03:34:05;2.27;;;2.10;;
10090;SDS011;5084;51.386;6.778;2023-07-29T03:36:31;2.13;;;2.03;;
10090;SDS011;5084;51.386;6.778;2023-07-29T03:38:57;1.97;;;1.87;;
10090;SDS011;5084;51.386;6.778;2023-07-29T03:41:25;2.60;;;2.40;;
10090;SDS011;5084;51.386;6.778;2023-07-29T03:43:51;2.50;;;2.30;;
10090;SDS011;5084;51.386;6.778;2023-07-29T03:46:17;2.70;;;2.50;;
10090;SDS011;5084;51.386;6.778;2023-07-29T03:48:46;2.40;;;2.20;;
10090;SDS011;5084;51.386;6.778;2023-07-29T03:51:13;1.97;;;1.87;;
10090;SDS011;5084;51.386;6.778;2023-07-29T03:53:39;3.00;;;2.17;;
10090;SDS011;5084;51.386;6.778;2023-07-29T03:56:05;2.00;;;1.80;;
10090;SDS011;5084;51.386;6.778;2023-07-29T03:58:31;2.60;;;2.40;;
10090;SDS011;5084;51.386;6.778;2023-07-29T04:00:57;2.50;;;2.30;;
10090;SDS011;5084;51.386;6.778;2023-07-29T04:03:23;2.20;;;2.10;;
10090;SDS011;5084;51.386;6.778;2023-07-29T04:05:50;2.80;;;2.60;;
10090;SDS011;5084;51.386;6.778;2023-07-29T04:08:16;2.53;;;2.33;;
10090;SDS011;5084;51.386;6.778;2023-07-29T04:10:42;3.90;;;2.47;;
10090;SDS011;5084;51.386;6.778;2023-07-29T04:13:08;2.83;;;2.60;;
10090;SDS011;5084;51.386;6.778;2023-07-29T04:15:34;2.70;;;2.50;;
10090;SDS011;5084;51.386;6.778;2023-07-29T04:18:00;2.53;;;2.33;;
10090;SDS011;5084;51.386;6.778;2023-07-29T04:20:26;2.67;;;2.47;;
10090;SDS011;5084;51.386;6.778;2023-07-29T04:22:52;2.57;;;2.37;;
10090;SDS011;5084;51.386;6.778;2023-07-29T04:25:18;3.13;;;2.90;;
10090;SDS011;5084;51.386;6.778;2023-07-29T04:27:44;2.83;;;2.50;;
10090;SDS011;5084;51.386;6.778;2023-07-29T04:30:10;2.40;;;2.20;;
10090;SDS011;5084;51.386;6.778;2023-07-29T04:32:37;2.90;;;2.53;;
10090;SDS011;5084;51.386;6.778;2023-07-29T04:35:03;3.27;;;2.77;;
10090;SDS011;5084;51.386;6.778;2023-07-29T04:37:29;4.97;;;2.90;;
10090;SDS011;5084;51.386;6.778;2023-07-29T04:39:55;2.80;;;2.60;;
10090;SDS011;5084;51.386;6.778;2023-07-29T04:42:21;2.97;;;2.77;;
10090;SDS011;5084;51.386;6.778;2023-07-29T04:44:47;3.20;;;2.90;;
10090;SDS011;5084;51.386;6.778;2023-07-29T04:47:13;3.17;;;2.97;;
10090;SDS011;5084;51.386;6.778;2023-07-29T04:49:39;4.30;;;3.37;;
10090;SDS011;5084;51.386;6.778;2023-07-29T04:52:05;4.13;;;3.40;;
10090;SDS011;5084;51.386;6.778;2023-07-29T04:54:31;4.60;;;3.20;;
10090;SDS011;5084;51.386;6.778;2023-07-29T04:56:57;4.30;;;2.87;;
10090;SDS011;5084;51.386;6.778;2023-07-29T04:59:24;3.17;;;2.97;;
10090;SDS011;5084;51.386;6.778;2023-07-29T05:01:50;4.33;;;3.07;;
10090;SDS011;5084;51.386;6.778;2023-07-29T05:04:16;4.53;;;3.57;;
10090;SDS011;5084;51.386;6.778;2023-07-29T05:06:42;2.93;;;2.63;;
10090;SDS011;5084;51.386;6.778;2023-07-29T05:11:40;3.00;;;2.80;;
10090;SDS011;5084;51.386;6.778;2023-07-29T05:14:07;3.80;;;3.00;;
10090;SDS011;5084;51.386;6.778;2023-07-29T05:16:34;4.13;;;2.90;;
10090;SDS011;5084;51.386;6.778;2023-07-29T05:19:00;3.20;;;2.90;;
10090;SDS011;5084;51.386;6.778;2023-07-29T05:21:26;3.50;;;3.20;;
10090;SDS011;5084;51.386;6.778;2023-07-29T05:23:52;2.90;;;2.70;;
10090;SDS011;5084;51.386;6.778;2023-07-29T05:26:18;3.00;;;2.80;;
10090;SDS011;5084;51.386;6.778;2023-07-29T05:28:45;3.20;;;2.90;;
10090;SDS011;5084;51.386;6.778;2023-07-29T05:31:11;3.30;;;3.00;;
10090;SDS011;5084;51.386;6.778;2023-07-29T05:33:37;3.67;;;3.37;;
10090;SDS011;5084;51.386;6.778;2023-07-29T05:36:03;3.17;;;2.90;;
10090;SDS011;5084;51.386;6.778;2023-07-29T05:38:30;2.93;;;2.73;;
10090;SDS011;5084;51.386;6.778;2023-07-29T05:40:56;3.90;;;3.60;;
10090;SDS011;5084;51.386;6.778;2023-07-29T05:43:23;3.50;;;3.20;;
10090;SDS011;5084;51.386;6.778;2023-07-29T05:45:50;3.20;;;3.00;;
10090;SDS011;5084;51.386;6.778;2023-07-29T05:48:16;3.00;;;2.80;;
10090;SDS011;5084;51.386;6.778;2023-07-29T05:50:46;2.43;;;2.27;;
10090;SDS011;5084;51.386;6.778;2023-07-29T05:53:13;3.17;;;2.90;;
10090;SDS011;5084;51.386;6.778;2023-07-29T05:55:39;3.53;;;2.63;;
10090;SDS011;5084;51.386;6.778;2023-07-29T05:58:05;3.87;;;3.00;;
10090;SDS011;5084;51.386;6.778;2023-07-29T06:00:32;4.00;;;2.93;;
10090;SDS011;5084;51.386;6.778;2023-07-29T06:02:58;3.20;;;2.70;;
10090;SDS011;5084;51.386;6.778;2023-07-29T06:05:24;3.10;;;2.90;;
10090;SDS011;5084;51.386;6.778;2023-07-29T06:07:50;3.27;;;2.90;;
10090;SDS011;5084;51.386;6.778;2023-07-29T06:10:16;3.30;;;2.60;;
10090;SDS011;5084;51.386;6.778;2023-07-29T06:12:43;3.13;;;2.90;;
10090;SDS011;5084;51.386;6.778;2023-07-29T06:15:10;3.97;;;2.90;;
10090;SDS011;5084;51.386;6.778;2023-07-29T06:17:37;2.87;;;2.60;;
10090;SDS011;5084;51.386;6.778;2023-07-29T06:20:04;2.63;;;2.47;;
10090;SDS011;5084;51.386;6.778;2023-07-29T06:22:31;2.90;;;2.70;;
10090;SDS011;5084;51.386;6.778;2023-07-29T06:24:57;2.83;;;2.63;;
10090;SDS011;5084;51.386;6.778;2023-07-29T06:27:23;2.90;;;2.57;;
10090;SDS011;5084;51.386;6.778;2023-07-29T06:29:50;2.73;;;2.53;;
10090;SDS011;5084;51.386;6.778;2023-07-29T06:32:16;3.07;;;2.70;;
10090;SDS011;5084;51.386;6.778;2023-07-29T06:34:42;2.90;;;2.70;;
10090;SDS011;5084;51.386;6.778;2023-07-29T06:37:08;2.60;;;2.40;;
10090;SDS011;5084;51.386;6.778;2023-07-29T06:39:34;4.33;;;2.70;;
10090;SDS011;5084;51.386;6.778;2023-07-29T06:42:00;2.80;;;2.53;;
10090;SDS011;5084;51.386;6.778;2023-07-29T06:44:27;2.80;;;2.60;;
10090;SDS011;5084;51.386;6.778;2023-07-29T06:46:53;3.97;;;3.10;;
10090;SDS011;5084;51.386;6.778;2023-07-29T06:49:19;3.20;;;2.90;;
10090;SDS011;5084;51.386;6.778;2023-07-29T06:51:45;4.43;;;2.80;;
10090;SDS011;5084;51.386;6.778;2023-07-29T06:54:11;3.20;;;2.80;;
10090;SDS011;5084;51.386;6.778;2023-07-29T06:56:37;3.37;;;3.10;;
10090;SDS011;5084;51.386;6.778;2023-07-29T06:59:03;3.53;;;3.03;;
10090;SDS011;5084;51.386;6.778;2023-07-29T07:01:29;3.40;;;3.10;;
10090;SDS011;5084;51.386;6.778;2023-07-29T07:03:55;3.07;;;2.53;;
10090;SDS011;5084;51.386;6.778;2023-07-29T07:06:23;2.80;;;2.60;;
10090;SDS011;5084;51.386;6.778;2023-07-29T07:08:50;3.17;;;2.87;;
10090;SDS011;5084;51.386;6.778;2023-07-29T07:11:16;3.60;;;3.10;;
10090;SDS011;5084;51.386;6.778;2023-07-29T07:13:42;3.23;;;2.93;;
10090;SDS011;5084;51.386;6.778;2023-07-29T07:16:08;4.10;;;2.73;;
10090;SDS011;5084;51.386;6.778;2023-07-29T07:18:34;2.70;;;2.50;;
10090;SDS011;5084;51.386;6.778;2023-07-29T07:21:00;2.70;;;2.43;;
10090;SDS011;5084;51.386;6.778;2023-07-29T07:23:26;2.60;;;2.37;;
10090;SDS011;5084;51.386;6.778;2023-07-29T07:25:53;2.90;;;2.70;;
10090;SDS011;5084;51.386;6.778;2023-07-29T07:28:19;2.57;;;2.37;;
10090;SDS011;5084;51.386;6.778;2023-07-29T07:30:45;2.97;;;2.77;;
10090;SDS011;5084;51.386;6.778;2023-07-29T07:33:11;2.97;;;2.57;;
10090;SDS011;5084;51.386;6.778;2023-07-29T07:35:37;2.90;;;2.63;;
10090;SDS011;5084;51.386;6.778;2023-07-29T07:38:03;2.93;;;2.73;;
10090;SDS011;5084;51.386;6.778;2023-07-29T07:40:30;2.67;;;2.23;;
10090;SDS011;5084;51.386;6.778;2023-07-29T07:42:56;2.83;;;2.63;;
10090;SDS011;5084;51.386;6.778;2023-07-29T07:45:22;3.33;;;2.70;;
10090;SDS011;5084;51.386;6.778;2023-07-29T07:47:48;2.83;;;2.53;;
10090;SDS011;5084;51.386;6.778;2023-07-29T07:50:14;3.00;;;2.80;;
10090;SDS011;5084;51.386;6.778;2023-07-29T07:52:41;2.30;;;2.10;;
10090;SDS011;5084;51.386;6.778;2023-07-29T07:55:07;2.87;;;2.60;;
10090;SDS011;5084;51.386;6.778;2023-07-29T07:57:33;2.40;;;2.20;;
10090;SDS011;5084;51.386;6.778;2023-07-29T07:59:59;2.50;;;2.30;;
10090;SDS011;5084;51.386;6.778;2023-07-29T08:02:25;2.37;;;2.17;;
10090;SDS011;5084;51.386;6.778;2023-07-29T08:04:51;2.37;;;2.17;;
10090;SDS011;5084;51.386;6.778;2023-07-29T08:07:17;1.93;;;1.83;;
10090;SDS011;5084;51.386;6.778;2023-07-29T08:09:44;2.17;;;1.97;;
10090;SDS011;5084;51.386;6.778;2023-07-29T08:12:10;2.53;;;2.33;;
10090;SDS011;5084;51.386;6.778;2023-07-29T08:14:36;2.10;;;1.97;;
10090;SDS011;5084;51.386;6.778;2023-07-29T08:17:02;1.93;;;1.83;;
10090;SDS011;5084;51.386;6.778;2023-07-29T08:19:28;2.17;;;2.07;;
10090;SDS011;5084;51.386;6.778;2023-07-29T08:21:54;2.00;;;1.90;;
10090;SDS011;5084;51.386;6.778;2023-07-29T08:24:20;2.10;;;2.00;;
10090;SDS011;5084;51.386;6.778;2023-07-29T08:26:46;3.27;;;2.23;;
10090;SDS011;5084;51.386;6.778;2023-07-29T08:29:12;2.20;;;2.00;;
10090;SDS011;5084;51.386;6.778;2023-07-29T08:31:41;1.90;;;1.80;;
10090;SDS011;5084;51.386;6.778;2023-07-29T08:34:07;2.50;;;2.30;;
10090;SDS011;5084;51.386;6.778;2023-07-29T08:36:33;2.30;;;2.13;;
10090;SDS011;5084;51.386;6.778;2023-07-29T08:38:59;2.10;;;2.00;;
10090;SDS011;5084;51.386;6.778;2023-07-29T08:41:27;2.13;;;2.03;;
10090;SDS011;5084;51.386;6.778;2023-07-29T08:44:12;1.63;;;1.53;;
10090;SDS011;5084;51.386;6.778;2023-07-29T08:46:38;1.90;;;1.80;;
10090;SDS011;5084;51.386;6.778;2023-07-29T08:49:04;2.00;;;1.90;;
10090;SDS011;5084;51.386;6.778;2023-07-29T08:51:31;1.90;;;1.70;;
10090;SDS011;5084;51.386;6.778;2023-07-29T08:53:58;1.80;;;1.70;;
10090;SDS011;5084;51.386;6.778;2023-07-29T08:56:24;1.73;;;1.63;;
10090;SDS011;5084;51.386;6.778;2023-07-29T08:58:50;2.20;;;2.00;;
10090;SDS011;5084;51.386;6.778;2023-07-29T09:01:17;2.43;;;1.80;;
10090;SDS011;5084;51.386;6.778;2023-07-29T09:03:43;1.70;;;1.60;;
10090;SDS011;5084;51.386;6.778;2023-07-29T09:06:09;1.97;;;1.87;;
10090;SDS011;5084;51.386;6.778;2023-07-29T09:08:35;1.97;;;1.80;;
10090;SDS011;5084;51.386;6.778;2023-07-29T09:11:01;2.73;;;1.90;;
10090;SDS011;5084;51.386;6.778;2023-07-29T09:13:27;1.80;;;1.70;;
10090;SDS011;5084;51.386;6.778;2023-07-29T09:15:54;1.83;;;1.73;;
10090;SDS011;5084;51.386;6.778;2023-07-29T09:18:21;2.03;;;1.93;;
10090;SDS011;5084;51.386;6.778;2023-07-29T09:20:48;1.87;;;1.77;;
10090;SDS011;5084;51.386;6.778;2023-07-29T09:23:14;2.23;;;2.13;;
10090;SDS011;5084;51.386;6.778;2023-07-29T09:25:40;2.13;;;1.90;;
10090;SDS011;5084;51.386;6.778;2023-07-29T09:30:35;2.20;;;2.00;;
10090;SDS011;5084;51.386;6.778;2023-07-29T09:33:02;3.80;;;3.50;;
10090;SDS011;5084;51.386;6.778;2023-07-29T09:35:29;2.00;;;1.90;;
10090;SDS011;5084;51.386;6.778;2023-07-29T09:37:56;1.97;;;1.87;;
10090;SDS011;5084;51.386;6.778;2023-07-29T09:40:22;2.23;;;2.03;;
10090;SDS011;5084;51.386;6.778;2023-07-29T09:42:52;2.43;;;2.10;;
10090;SDS011;5084;51.386;6.778;2023-07-29T09:45:25;3.17;;;2.03;;
10090;SDS011;5084;51.386;6.778;2023-07-29T09:47:52;2.33;;;1.73;;
10090;SDS011;5084;51.386;6.778;2023-07-29T09:50:18;2.47;;;2.10;;
10090;SDS011;5084;51.386;6.778;2023-07-29T09:52:45;7.87;;;2.87;;
10090;SDS011;5084;51.386;6.778;2023-07-29T09:55:13;2.40;;;2.20;;
10090;SDS011;5084;51.386;6.778;2023-07-29T09:57:42;2.37;;;2.20;;
10090;SDS011;5084;51.386;6.778;2023-07-29T10:00:11;2.40;;;2.20;;
10090;SDS011;5084;51.386;6.778;2023-07-29T10:02:41;3.43;;;2.57;;
10090;SDS011;5084;51.386;6.778;2023-07-29T10:05:07;3.77;;;2.67;;
10090;SDS011;5084;51.386;6.778;2023-07-29T10:07:34;2.80;;;2.50;;
10090;SDS011;5084;51.386;6.778;2023-07-29T10:10:02;2.50;;;2.30;;
10090;SDS011;5084;51.386;6.778;2023-07-29T10:12:30;2.90;;;2.70;;
10090;SDS011;5084;51.386;6.778;2023-07-29T10:14:58;4.80;;;2.90;;
10090;SDS011;5084;51.386;6.778;2023-07-29T10:17:25;2.73;;;2.40;;
10090;SDS011;5084;51.386;6.778;2023-07-29T10:19:52;3.17;;;2.53;;
10090;SDS011;5084;51.386;6.778;2023-07-29T10:22:19;3.40;;;2.60;;
10090;SDS011;5084;51.386;6.778;2023-07-29T10:24:46;2.47;;;2.27;;
10090;SDS011;5084;51.386;6.778;2023-07-29T10:27:13;3.87;;;2.63;;
10090;SDS011;5084;51.386;6.778;2023-07-29T10:29:43;3.37;;;2.53;;
10090;SDS011;5084;51.386;6.778;2023-07-29T10:32:09;3.10;;;2.70;;
10090;SDS011;5084;51.386;6.778;2023-07-29T10:34:36;2.80;;;2.20;;
10090;SDS011;5084;51.386;6.778;2023-07-29T10:37:03;2.83;;;2.63;;
10090;SDS011;5084;51.386;6.778;2023-07-29T10:39:37;2.60;;;2.40;;
10090;SDS011;5084;51.386;6.778;2023-07-29T10:42:04;2.57;;;2.20;;
10090;SDS011;5084;51.386;6.778;2023-07-29T10:47:20;2.97;;;2.33;;
10090;SDS011;5084;51.386;6.778;2023-07-29T10:49:53;2.40;;;2.20;;
10090;SDS011;5084;51.386;6.778;2023-07-29T10:52:30;2.57;;;2.37;;
10090;SDS011;5084;51.386;6.778;2023-07-29T10:54:56;2.40;;;2.20;;
10090;SDS011;5084;51.386;6.778;2023-07-29T10:57:36;2.33;;;2.13;;
10090;SDS011;5084;51.386;6.778;2023-07-29T11:00:03;2.70;;;2.50;;
10090;SDS011;5084;51.386;6.778;2023-07-29T11:02:31;2.40;;;2.20;;
10090;SDS011;5084;51.386;6.778;2023-07-29T11:04:57;2.83;;;2.30;;
10090;SDS011;5084;51.386;6.778;2023-07-29T11:07:24;2.20;;;2.10;;
10090;SDS011;5084;51.386;6.778;2023-07-29T11:17:39;2.40;;;2.20;;
10090;SDS011;5084;51.386;6.778;2023-07-29T11:20:05;2.50;;;2.30;;
10090;SDS011;5084;51.386;6.778;2023-07-29T11:22:35;2.20;;;2.00;;
10090;SDS011;5084;51.386;6.778;2023-07-29T11:25:01;2.13;;;2.03;;
10090;SDS011;5084;51.386;6.778;2023-07-29T11:27:27;2.27;;;2.07;;
10090;SDS011;5084;51.386;6.778;2023-07-29T11:29:57;2.70;;;2.07;;
10090;SDS011;5084;51.386;6.778;2023-07-29T11:32:23;1.93;;;1.83;;
10090;SDS011;5084;51.386;6.778;2023-07-29T11:34:50;2.07;;;1.87;;
10090;SDS011;5084;51.386;6.778;2023-07-29T11:37:16;2.23;;;2.03;;
10090;SDS011;5084;51.386;6.778;2023-07-29T11:39:42;3.57;;;2.10;;
10090;SDS011;5084;51.386;6.778;2023-07-29T11:42:12;1.93;;;1.83;;
10090;SDS011;5084;51.386;6.778;2023-07-29T11:44:38;2.13;;;2.03;;
10090;SDS011;5084;51.386;6.778;2023-07-29T11:47:08;2.60;;;2.40;;
10090;SDS011;5084;51.386;6.778;2023-07-29T11:49:34;2.40;;;2.20;;
10090;SDS011;5084;51.386;6.778;2023-07-29T11:52:01;2.00;;;1.90;;
10090;SDS011;5084;51.386;6.778;2023-07-29T11:54:28;2.80;;;2.60;;
10090;SDS011;5084;51.386;6.778;2023-07-29T11:56:54;5.87;;;2.30;;
10090;SDS011;5084;51.386;6.778;2023-07-29T11:59:21;2.43;;;2.23;;
10090;SDS011;5084;51.386;6.778;2023-07-29T12:01:47;1.87;;;1.77;;
10090;SDS011;5084;51.386;6.778;2023-07-29T12:04:13;2.47;;;2.30;;
10090;SDS011;5084;51.386;6.778;2023-07-29T12:06:39;2.97;;;1.97;;
10090;SDS011;5084;51.386;6.778;2023-07-29T12:09:06;2.20;;;2.10;;
10090;SDS011;5084;51.386;6.778;2023-07-29T12:11:32;2.40;;;2.20;;
10090;SDS011;5084;51.386;6.778;2023-07-29T12:14:01;2.93;;;2.73;;
10090;SDS011;5084;51.386;6.778;2023-07-29T12:16:28;2.40;;;2.20;;
10090;SDS011;5084;51.386;6.778;2023-07-29T12:19:00;2.40;;;2.20;;
10090;SDS011;5084;51.386;6.778;2023-07-29T12:21:26;2.23;;;2.13;;
10090;SDS011;5084;51.386;6.778;2023-07-29T12:23:52;2.03;;;1.90;;
10090;SDS011;5084;51.386;6.778;2023-07-29T12:26:18;2.00;;;1.80;;
10090;SDS011;5084;51.386;6.778;2023-07-29T12:28:45;2.57;;;2.37;;
10090;SDS011;5084;51.386;6.778;2023-07-29T12:31:12;2.43;;;2.23;;
10090;SDS011;5084;51.386;6.778;2023-07-29T12:33:38;2.33;;;2.13;;
10090;SDS011;5084;51.386;6.778;2023-07-29T12:36:07;2.07;;;1.97;;
10090;SDS011;5084;51.386;6.778;2023-07-29T12:38:33;2.60;;;2.40;;
10090;SDS011;5084;51.386;6.778;2023-07-29T12:40:59;2.37;;;2.27;;
10090;SDS011;5084;51.386;6.778;2023-07-29T12:43:25;2.43;;;2.23;;
10090;SDS011;5084;51.386;6.778;2023-07-29T12:45:51;2.70;;;2.37;;
10090;SDS011;5084;51.386;6.778;2023-07-29T12:48:17;2.37;;;2.17;;
10090;SDS011;5084;51.386;6.778;2023-07-29T12:50:43;3.77;;;2.13;;
10090;SDS011;5084;51.386;6.778;2023-07-29T12:53:09;2.40;;;2.20;;
10090;SDS011;5084;51.386;6.778;2023-07-29T12:55:36;2.87;;;1.97;;
10090;SDS011;5084;51.386;6.778;2023-07-29T12:58:02;2.13;;;2.00;;
10090;SDS011;5084;51.386;6.778;2023-07-29T13:00:28;2.37;;;2.20;;
10090;SDS011;5084;51.386;6.778;2023-07-29T13:02:55;2.33;;;2.23;;
10090;SDS011;5084;51.386;6.778;2023-07-29T13:05:21;2.67;;;2.10;;
10090;SDS011;5084;51.386;6.778;2023-07-29T13:07:47;2.67;;;2.47;;
10090;SDS011;5084;51.386;6.778;2023-07-29T13:10:13;2.53;;;2.33;;
10090;SDS011;5084;51.386;6.778;2023-07-29T13:12:39;2.17;;;2.07;;
10090;SDS011;5084;51.386;6.778;2023-07-29T13:15:06;2.27;;;1.90;;
10090;SDS011;5084;51.386;6.778;2023-07-29T13:17:32;2.40;;;2.20;;
10090;SDS011;5084;51.386;6.778;2023-07-29T13:19:58;2.30;;;2.20;;
10090;SDS011;5084;51.386;6.778;2023-07-29T13:22:24;2.07;;;1.97;;
10090;SDS011;5084;51.386;6.778;2023-07-29T13:24:50;2.27;;;2.17;;
10090;SDS011;5084;51.386;6.778;2023-07-29T13:27:16;2.13;;;1.93;;
10090;SDS011;5084;51.386;6.778;2023-07-29T13:29:43;2.93;;;1.93;;
10090;SDS011;5084;51.386;6.778;2023-07-29T13:32:09;4.53;;;2.27;;
10090;SDS011;5084;51.386;6.778;2023-07-29T13:34:35;3.47;;;2.30;;
10090;SDS011;5084;51.386;6.778;2023-07-29T13:37:01;2.53;;;2.33;;
10090;SDS011;5084;51.386;6.778;2023-07-29T13:39:27;2.90;;;2.70;;
10090;SDS011;5084;51.386;6.778;2023-07-29T13:41:54;2.40;;;2.30;;
10090;SDS011;5084;51.386;6.778;2023-07-29T13:44:20;2.40;;;2.20;;
10090;SDS011;5084;51.386;6.778;2023-07-29T13:46:46;3.00;;;2.70;;
10090;SDS011;5084;51.386;6.778;2023-07-29T13:49:12;3.17;;;2.87;;
10090;SDS011;5084;51.386;6.778;2023-07-29T13:51:38;3.80;;;2.30;;
10090;SDS011;5084;51.386;6.778;2023-07-29T13:54:04;3.10;;;2.77;;
10090;SDS011;5084;51.386;6.778;2023-07-29T13:56:30;2.47;;;2.27;;
10090;SDS011;5084;51.386;6.778;2023-07-29T13:58:56;4.17;;;2.70;;
10090;SDS011;5084;51.386;6.778;2023-07-29T14:01:22;3.70;;;2.90;;
10090;SDS011;5084;51.386;6.778;2023-07-29T14:03:48;3.83;;;2.90;;
10090;SDS011;5084;51.386;6.778;2023-07-29T14:06:14;4.97;;;2.80;;
10090;SDS011;5084;51.386;6.778;2023-07-29T14:08:40;7.23;;;3.23;;
10090;SDS011;5084;51.386;6.778;2023-07-29T14:11:07;5.10;;;3.30;;
10090;SDS011;5084;51.386;6.778;2023-07-29T14:13:33;5.97;;;3.07;;
10090;SDS011;5084;51.386;6.778;2023-07-29T14:16:02;3.60;;;3.30;;
10090;SDS011;5084;51.386;6.778;2023-07-29T14:18:28;2.63;;;2.43;;
10090;SDS011;5084;51.386;6.778;2023-07-29T14:20:55;8.40;;;4.00;;
10090;SDS011;5084;51.386;6.778;2023-07-29T14:23:21;3.30;;;3.07;;
10090;SDS011;5084;51.386;6.778;2023-07-29T14:25:47;3.40;;;3.10;;
10090;SDS011;5084;51.386;6.778;2023-07-29T14:28:13;4.03;;;3.50;;
10090;SDS011;5084;51.386;6.778;2023-07-29T14:30:39;3.03;;;2.83;;
10090;SDS011;5084;51.386;6.778;2023-07-29T14:33:06;3.53;;;3.03;;
10090;SDS011;5084;51.386;6.778;2023-07-29T14:35:32;3.17;;;2.87;;
10090;SDS011;5084;51.386;6.778;2023-07-29T14:37:58;3.07;;;2.87;;
10090;SDS011;5084;51.386;6.778;2023-07-29T14:40:24;3.43;;;3.07;;
10090;SDS011;5084;51.386;6.778;2023-07-29T14:42:51;2.53;;;2.33;;
10090;SDS011;5084;51.386;6.778;2023-07-29T14:45:17;2.80;;;2.60;;
10090;SDS011;5084;51.386;6.778;2023-07-29T14:47:44;2.23;;;2.03;;
10090;SDS011;5084;51.386;6.778;2023-07-29T14:50:10;2.97;;;2.30;;
10090;SDS011;5084;51.386;6.778;2023-07-29T14:52:36;2.20;;;2.10;;
10090;SDS011;5084;51.386;6.778;2023-07-29T14:55:02;2.20;;;2.00;;
10090;SDS011;5084;51.386;6.778;2023-07-29T14:57:28;2.30;;;2.10;;
10090;SDS011;5084;51.386;6.778;2023-07-29T14:59:54;2.20;;;2.10;;
10090;SDS011;5084;51.386;6.778;2023-07-29T15:02:20;1.97;;;1.50;;
10090;SDS011;5084;51.386;6.778;2023-07-29T15:04:47;2.23;;;2.07;;
10090;SDS011;5084;51.386;6.778;2023-07-29T15:07:13;2.33;;;2.13;;
10090;SDS011;5084;51.386;6.778;2023-07-29T15:09:39;3.53;;;2.20;;
10090;SDS011;5084;51.386;6.778;2023-07-29T15:12:05;2.90;;;2.67;;
10090;SDS011;5084;51.386;6.778;2023-07-29T15:14:32;2.67;;;2.47;;
10090;SDS011;5084;51.386;6.778;2023-07-29T15:16:58;2.60;;;2.40;;
10090;SDS011;5084;51.386;6.778;2023-07-29T15:19:24;2.57;;;2.37;;